createdAt,value
2022-12-24T00:01:02.353Z,31.70
2022-12-24T00:02:05.514Z,32.50
2022-12-24T00:03:08.464Z,30.23
2022-12-24T00:04:11.349Z,26.85
2022-12-24T00:05:14.226Z,26.92
2022-12-24T00:06:22.622Z,26.65
2022-12-24T00:07:25.991Z,28.12
2022-12-24T00:08:30.289Z,26.07
2022-12-24T00:09:33.255Z,28.40
2022-12-24T00:10:35.982Z,26.60
2022-12-24T00:11:55.864Z,26.90
2022-12-24T00:12:58.998Z,28.02
2022-12-24T00:14:01.935Z,25.67
2022-12-24T00:15:06.103Z,25.62
2022-12-24T00:16:26.011Z,25.15
2022-12-24T00:17:28.856Z,25.25
2022-12-24T00:18:32.577Z,25.42
2022-12-24T00:19:35.389Z,25.43
2022-12-24T00:20:38.375Z,25.00
2022-12-24T00:21:41.220Z,25.27
2022-12-24T00:22:43.985Z,24.37
2022-12-24T00:23:47.105Z,25.77
2022-12-24T00:24:49.881Z,23.58
2022-12-24T00:25:52.665Z,24.52
2022-12-24T00:26:56.091Z,24.25
2022-12-24T00:27:59.032Z,23.92
2022-12-24T00:29:02.469Z,22.13
2022-12-24T00:30:06.024Z,24.37
2022-12-24T00:31:15.917Z,22.57
2022-12-24T00:32:18.812Z,22.98
2022-12-24T00:33:24.691Z,22.15
2022-12-24T00:34:28.082Z,26.58
2022-12-24T00:35:30.957Z,33.97
2022-12-24T00:36:34.352Z,37.95
2022-12-24T00:37:37.143Z,35.05
2022-12-24T00:38:40.050Z,31.98
2022-12-24T00:39:43.169Z,29.98
2022-12-24T00:40:45.947Z,29.30
2022-12-24T00:42:08.781Z,34.03
2022-12-24T00:43:11.618Z,27.73
2022-12-24T00:44:14.531Z,26.17
2022-12-24T00:45:17.982Z,23.35
2022-12-24T00:46:21.067Z,22.45
2022-12-24T00:47:23.939Z,21.23
2022-12-24T00:48:28.113Z,22.60
2022-12-24T00:49:30.863Z,20.65
2022-12-24T00:50:34.471Z,21.58
2022-12-24T00:51:37.467Z,20.13
2022-12-24T00:52:40.482Z,20.83
2022-12-24T00:53:43.349Z,20.80
2022-12-24T00:54:46.100Z,20.17
2022-12-24T00:55:49.197Z,24.70
2022-12-24T00:57:11.772Z,22.70
2022-12-24T00:58:15.547Z,22.95
2022-12-24T00:59:19.340Z,23.52
2022-12-24T01:00:22.232Z,23.05
2022-12-24T01:01:26.486Z,24.25
2022-12-24T01:02:29.760Z,26.03
2022-12-24T01:03:36.232Z,26.77
2022-12-24T01:04:57.781Z,23.77
2022-12-24T01:06:00.536Z,22.00
2022-12-24T01:07:03.888Z,24.02
2022-12-24T01:08:06.846Z,24.05
2022-12-24T01:09:10.145Z,24.33
2022-12-24T01:10:19.807Z,23.30
2022-12-24T01:11:35.671Z,24.20
2022-12-24T01:12:39.871Z,23.08
2022-12-24T01:13:42.614Z,20.87
2022-12-24T01:14:46.433Z,20.80
2022-12-24T01:15:49.467Z,21.50
2022-12-24T01:16:52.397Z,21.40
2022-12-24T01:17:56.101Z,21.45
2022-12-24T01:18:59.735Z,21.83
2022-12-24T01:20:03.411Z,21.62
2022-12-24T01:21:06.210Z,21.58
2022-12-24T01:22:09.431Z,20.73
2022-12-24T01:23:12.584Z,20.77
2022-12-24T01:24:16.626Z,20.50
2022-12-24T01:25:19.354Z,19.33
2022-12-24T01:26:22.218Z,20.05
2022-12-24T01:27:25.026Z,20.50
2022-12-24T01:28:30.478Z,19.77
2022-12-24T01:29:33.295Z,20.62
2022-12-24T01:30:36.094Z,19.98
2022-12-24T01:31:39.137Z,19.92
2022-12-24T01:32:42.478Z,18.75
2022-12-24T01:33:48.776Z,21.30
2022-12-24T01:34:51.577Z,18.90
2022-12-24T01:35:54.340Z,19.40
2022-12-24T01:36:57.241Z,19.80
2022-12-24T01:38:00.010Z,20.75
2022-12-24T01:39:04.350Z,20.08
2022-12-24T01:42:45.276Z,18.35
2022-12-24T01:43:48.224Z,17.40
2022-12-24T01:44:52.716Z,19.27
2022-12-24T01:45:59.309Z,19.17
2022-12-24T01:47:10.853Z,18.83
2022-12-24T01:52:21.035Z,23.35
2022-12-24T01:53:24.560Z,21.62
2022-12-24T01:54:38.390Z,22.00
2022-12-24T01:55:42.104Z,20.77
2022-12-24T01:56:49.220Z,26.05
2022-12-24T01:57:58.621Z,23.30
2022-12-24T01:59:06.666Z,23.42
2022-12-24T02:00:13.308Z,21.30
2022-12-24T02:01:17.745Z,21.10
2022-12-24T02:02:21.753Z,19.90
2022-12-24T02:03:24.905Z,21.55
2022-12-24T02:04:51.014Z,21.55
2022-12-24T02:05:57.206Z,23.48
2022-12-24T02:07:00.749Z,23.08
2022-12-24T02:08:05.090Z,23.05
2022-12-24T02:09:08.201Z,20.60
2022-12-24T02:10:13.975Z,21.62
2022-12-24T02:11:20.285Z,22.97
2022-12-24T02:12:32.149Z,24.60
2022-12-24T02:13:34.944Z,25.45
2022-12-24T02:14:38.083Z,24.20
2022-12-24T02:15:49.342Z,21.90
2022-12-24T02:17:21.640Z,21.52
2022-12-24T02:18:43.043Z,24.33
2022-12-24T02:19:45.761Z,27.45
2022-12-24T02:25:26.723Z,20.60
2022-12-24T02:26:54.216Z,21.23
2022-12-24T02:28:21.829Z,17.62
2022-12-24T02:29:53.212Z,17.52
2022-12-24T02:31:04.126Z,17.60
2022-12-24T02:32:21.541Z,18.37
2022-12-24T02:33:31.840Z,16.83
2022-12-24T02:34:45.182Z,18.80
2022-12-24T02:36:24.266Z,16.85
2022-12-24T02:37:33.235Z,17.25
2022-12-24T02:39:17.844Z,18.03
2022-12-24T02:44:20.823Z,15.95
2022-12-24T02:45:31.178Z,17.00
2022-12-24T02:46:34.541Z,18.15
2022-12-24T02:47:39.525Z,17.95
2022-12-24T02:48:48.907Z,16.25
2022-12-24T02:49:53.242Z,17.75
2022-12-24T02:51:08.554Z,17.92
2022-12-24T02:52:35.646Z,17.70
2022-12-24T02:53:39.325Z,17.50
2022-12-24T02:54:42.524Z,18.05
2022-12-24T02:55:58.510Z,20.08
2022-12-24T02:57:21.167Z,19.17
2022-12-24T02:59:10.560Z,17.73
2022-12-24T03:00:18.541Z,20.27
2022-12-24T03:02:05.275Z,19.27
2022-12-24T03:03:34.639Z,18.70
2022-12-24T03:04:57.355Z,19.15
2022-12-24T03:06:14.122Z,16.90
2022-12-24T03:18:28.991Z,18.70
2022-12-24T03:19:33.098Z,19.30
2022-12-24T03:20:49.214Z,17.97
2022-12-24T03:23:12.581Z,18.67
2022-12-24T03:24:15.948Z,18.15
2022-12-24T03:25:20.775Z,18.85
2022-12-24T03:26:25.911Z,17.58
2022-12-24T03:27:31.400Z,18.60
2022-12-24T03:28:37.789Z,18.20
2022-12-24T03:29:42.318Z,18.23
2022-12-24T03:30:47.369Z,19.17
2022-12-24T03:31:53.360Z,18.93
2022-12-24T03:34:14.899Z,18.98
2022-12-24T03:35:18.216Z,29.60
2022-12-24T03:36:21.271Z,22.35
2022-12-24T03:37:25.642Z,24.42
2022-12-24T03:38:32.623Z,22.17
2022-12-24T03:39:36.223Z,36.80
2022-12-24T03:40:39.674Z,22.87
2022-12-24T03:41:42.921Z,19.70
2022-12-24T03:42:45.789Z,27.83
2022-12-24T03:43:48.951Z,22.70
2022-12-24T03:44:51.773Z,19.17
2022-12-24T03:45:54.954Z,20.55
2022-12-24T03:46:57.856Z,20.35
2022-12-24T03:48:00.783Z,18.75
2022-12-24T03:49:03.732Z,19.73
2022-12-24T03:50:07.866Z,20.33
2022-12-24T03:51:19.350Z,20.42
2022-12-24T03:52:22.097Z,19.60
2022-12-24T03:53:24.861Z,20.37
2022-12-24T03:54:27.637Z,19.48
2022-12-24T03:55:30.572Z,19.60
2022-12-24T03:56:33.679Z,20.95
2022-12-24T03:57:37.087Z,20.08
2022-12-24T03:58:40.225Z,20.05
2022-12-24T03:59:43.150Z,18.75
2022-12-24T04:00:46.341Z,19.08
2022-12-24T04:01:49.525Z,19.02
2022-12-24T04:02:53.436Z,18.27
2022-12-24T04:03:56.663Z,19.87
2022-12-24T04:04:59.474Z,18.45
2022-12-24T04:06:04.337Z,18.73
2022-12-24T04:07:07.653Z,19.00
2022-12-24T04:08:11.975Z,18.83
2022-12-24T04:09:18.094Z,19.08
2022-12-24T04:10:20.950Z,18.77
2022-12-24T04:11:24.243Z,18.50
2022-12-24T04:12:27.419Z,18.73
2022-12-24T04:13:30.192Z,19.33
2022-12-24T04:14:33.403Z,18.27
2022-12-24T04:15:36.745Z,19.52
2022-12-24T04:16:39.992Z,18.83
2022-12-24T04:17:43.912Z,19.85
2022-12-24T04:18:48.236Z,17.67
2022-12-24T04:19:51.691Z,34.63
2022-12-24T04:20:55.612Z,21.30
2022-12-24T04:21:58.442Z,20.02
2022-12-24T04:23:01.820Z,21.95
2022-12-24T04:24:05.650Z,19.93
2022-12-24T04:25:09.400Z,34.77
2022-12-24T04:26:13.918Z,22.48
2022-12-24T04:27:17.703Z,23.05
2022-12-24T04:28:21.731Z,21.48
2022-12-24T04:29:25.515Z,21.60
2022-12-24T04:30:28.330Z,22.20
2022-12-24T04:31:31.553Z,24.90
2022-12-24T04:32:34.650Z,23.60
2022-12-24T04:33:38.093Z,25.20
2022-12-24T04:34:40.840Z,22.80
2022-12-24T04:35:43.627Z,23.57
2022-12-24T04:36:47.016Z,28.48
2022-12-24T04:37:50.341Z,26.73
2022-12-24T04:38:58.314Z,26.25
2022-12-24T04:40:01.726Z,28.15
2022-12-24T04:41:22.356Z,27.45
2022-12-24T04:42:27.228Z,27.30
2022-12-24T04:43:31.392Z,28.33
2022-12-24T04:44:34.560Z,31.80
2022-12-24T04:45:37.440Z,30.73
2022-12-24T04:46:42.375Z,33.23
2022-12-24T04:47:45.213Z,34.53
2022-12-24T04:48:51.637Z,32.85
2022-12-24T04:49:54.759Z,37.03
2022-12-24T04:50:57.598Z,35.88
2022-12-24T04:52:00.461Z,36.15
2022-12-24T04:53:03.220Z,37.88
2022-12-24T04:54:06.096Z,38.42
2022-12-24T04:55:09.687Z,38.42
2022-12-24T04:56:15.967Z,38.10
2022-12-24T04:57:18.771Z,33.37
2022-12-24T04:58:21.846Z,41.03
2022-12-24T04:59:24.869Z,38.97
2022-12-24T05:00:28.016Z,38.80
2022-12-24T05:01:33.038Z,37.85
2022-12-24T05:02:36.077Z,38.97
2022-12-24T05:03:39.244Z,41.45
2022-12-24T05:04:42.034Z,42.53
2022-12-24T05:05:45.126Z,36.03
2022-12-24T05:06:48.285Z,41.07
2022-12-24T05:07:56.031Z,39.70
2022-12-24T05:08:59.870Z,45.53
2022-12-24T05:10:02.654Z,45.42
2022-12-24T05:11:06.473Z,44.15
2022-12-24T05:12:09.317Z,42.58
2022-12-24T05:13:12.067Z,40.30
2022-12-24T05:14:14.860Z,43.22
2022-12-24T05:15:17.788Z,46.65
2022-12-24T05:16:22.858Z,44.33
2022-12-24T05:17:26.118Z,44.30
2022-12-24T05:18:32.957Z,43.80
2022-12-24T05:19:36.688Z,44.22
2022-12-24T05:20:41.551Z,46.17
2022-12-24T05:21:44.700Z,46.67
2022-12-24T05:23:06.367Z,49.08
2022-12-24T05:24:30.387Z,48.90
2022-12-24T05:25:57.038Z,43.13
2022-12-24T05:27:00.187Z,46.75
2022-12-24T05:28:03.120Z,49.22
2022-12-24T05:29:07.928Z,45.67
2022-12-24T05:30:10.957Z,49.47
2022-12-24T05:31:17.278Z,44.60
2022-12-24T05:32:21.181Z,48.10
2022-12-24T05:33:24.477Z,47.42
2022-12-24T05:34:27.234Z,48.15
2022-12-24T05:35:30.141Z,47.38
2022-12-24T05:36:33.778Z,47.10
2022-12-24T05:37:36.926Z,46.47
2022-12-24T05:38:44.657Z,45.85
2022-12-24T05:39:47.396Z,48.40
2022-12-24T05:40:50.388Z,78.00
2022-12-24T05:41:53.124Z,59.50
2022-12-24T05:42:56.363Z,60.22
2022-12-24T05:43:59.332Z,53.78
2022-12-24T05:45:02.161Z,49.55
2022-12-24T05:46:08.557Z,45.90
2022-12-24T05:47:11.315Z,46.17
2022-12-24T05:48:14.388Z,47.50
2022-12-24T05:49:17.204Z,45.53
2022-12-24T05:50:19.960Z,49.93
2022-12-24T05:51:23.515Z,49.37
2022-12-24T05:52:26.286Z,54.72
2022-12-24T05:53:29.283Z,53.35
2022-12-24T05:54:32.067Z,50.95
2022-12-24T05:55:34.972Z,55.38
2022-12-24T05:56:37.698Z,54.67
2022-12-24T05:57:41.546Z,55.00
2022-12-24T05:58:45.812Z,53.85
2022-12-24T05:59:49.282Z,48.95
2022-12-24T06:00:54.481Z,49.17
2022-12-24T06:01:57.559Z,52.00
2022-12-24T06:03:01.119Z,40.08
2022-12-24T06:04:04.423Z,46.58
2022-12-24T06:05:07.604Z,45.50
2022-12-24T06:06:13.056Z,43.55
2022-12-24T06:07:16.100Z,42.38
2022-12-24T06:08:19.024Z,40.65
2022-12-24T06:09:22.864Z,42.72
2022-12-24T06:10:26.367Z,40.58
2022-12-24T06:12:01.913Z,40.67
2022-12-24T06:13:06.718Z,37.47
2022-12-24T06:14:09.985Z,36.90
2022-12-24T06:15:14.449Z,38.38
2022-12-24T06:16:22.007Z,39.22
2022-12-24T06:17:25.417Z,37.45
2022-12-24T06:18:32.509Z,38.05
2022-12-24T06:19:35.296Z,37.40
2022-12-24T06:20:38.254Z,38.28
2022-12-24T06:21:41.147Z,40.40
2022-12-24T06:22:43.905Z,36.23
2022-12-24T06:23:47.640Z,36.00
2022-12-24T06:24:50.485Z,39.63
2022-12-24T06:25:56.909Z,35.97
2022-12-24T06:26:59.590Z,35.63
2022-12-24T06:28:02.489Z,35.95
2022-12-24T06:29:06.467Z,37.42
2022-12-24T06:30:09.775Z,34.70
2022-12-24T06:31:16.041Z,34.70
2022-12-24T06:32:18.910Z,36.88
2022-12-24T06:33:21.676Z,30.87
2022-12-24T06:34:24.724Z,30.33
2022-12-24T06:35:27.597Z,31.98
2022-12-24T06:36:30.533Z,30.83
2022-12-24T06:37:33.598Z,30.83
2022-12-24T06:38:36.715Z,28.55
2022-12-24T06:39:39.793Z,28.92
2022-12-24T06:40:45.207Z,29.55
2022-12-24T06:41:48.368Z,28.25
2022-12-24T06:42:51.216Z,29.35
2022-12-24T06:43:54.062Z,27.17
2022-12-24T06:44:59.825Z,29.27
2022-12-24T06:46:06.914Z,28.17
2022-12-24T06:47:09.946Z,27.33
2022-12-24T06:48:12.973Z,28.38
2022-12-24T06:49:15.998Z,25.58
2022-12-24T06:50:19.487Z,25.10
2022-12-24T06:51:22.864Z,25.30
2022-12-24T06:52:25.701Z,26.12
2022-12-24T06:53:28.472Z,26.55
2022-12-24T06:54:31.240Z,25.33
2022-12-24T06:55:34.853Z,24.90
2022-12-24T06:56:37.668Z,24.85
2022-12-24T06:57:40.475Z,23.98
2022-12-24T06:58:45.193Z,25.88
2022-12-24T06:59:47.928Z,25.83
2022-12-24T07:00:51.115Z,26.77
2022-12-24T07:01:53.991Z,28.33
2022-12-24T07:02:56.903Z,27.05
2022-12-24T07:03:59.906Z,26.50
2022-12-24T07:05:02.737Z,29.57
2022-12-24T07:06:06.791Z,27.57
2022-12-24T07:07:09.536Z,26.83
2022-12-24T07:08:12.379Z,29.27
2022-12-24T07:09:19.668Z,27.48
2022-12-24T07:10:23.038Z,28.20
2022-12-24T07:11:26.754Z,26.30
2022-12-24T07:12:29.508Z,26.37
2022-12-24T07:13:34.470Z,27.15
2022-12-24T07:14:37.213Z,26.25
2022-12-24T07:15:44.391Z,27.80
2022-12-24T07:16:47.688Z,25.43
2022-12-24T07:17:50.669Z,31.87
2022-12-24T07:18:56.114Z,33.30
2022-12-24T07:19:58.984Z,29.58
2022-12-24T07:21:07.310Z,24.75
2022-12-24T07:22:15.451Z,24.48
2022-12-24T07:23:18.753Z,25.58
2022-12-24T07:24:21.750Z,24.58
2022-12-24T07:25:25.496Z,27.50
2022-12-24T07:26:28.311Z,24.40
2022-12-24T07:27:31.456Z,26.13
2022-12-24T07:28:37.435Z,29.63
2022-12-24T07:29:47.857Z,27.42
2022-12-24T07:31:00.292Z,26.98
2022-12-24T07:32:03.176Z,25.90
2022-12-24T07:33:09.080Z,27.02
2022-12-24T07:34:12.138Z,27.98
2022-12-24T07:35:16.736Z,35.25
2022-12-24T07:36:21.907Z,29.50
2022-12-24T07:37:26.145Z,28.10
2022-12-24T07:38:33.369Z,32.20
2022-12-24T07:39:36.196Z,31.10
2022-12-24T07:40:39.103Z,27.90
2022-12-24T07:41:42.189Z,27.20
2022-12-24T07:42:44.943Z,26.73
2022-12-24T07:43:47.998Z,25.05
2022-12-24T07:44:51.558Z,26.60
2022-12-24T07:45:58.657Z,26.67
2022-12-24T07:47:02.024Z,23.38
2022-12-24T07:48:05.500Z,23.50
2022-12-24T07:49:09.865Z,21.77
2022-12-24T07:50:12.814Z,23.98
2022-12-24T07:51:15.893Z,27.00
2022-12-24T07:52:18.794Z,26.08
2022-12-24T07:53:21.623Z,26.10
2022-12-24T07:54:25.588Z,26.27
2022-12-24T07:55:28.444Z,23.80
2022-12-24T07:56:32.301Z,26.67
2022-12-24T07:57:35.289Z,24.77
2022-12-24T07:58:38.493Z,23.70
2022-12-24T07:59:41.979Z,27.10
2022-12-24T08:00:45.959Z,26.08
2022-12-24T08:01:49.542Z,29.25
2022-12-24T08:02:53.423Z,29.87
2022-12-24T08:03:58.418Z,27.17
2022-12-24T08:05:02.087Z,32.22
2022-12-24T08:06:05.642Z,29.08
2022-12-24T08:07:09.051Z,24.98
2022-12-24T08:08:12.400Z,25.52
2022-12-24T08:09:15.706Z,32.77
2022-12-24T08:10:18.649Z,26.17
2022-12-24T08:11:21.476Z,23.87
2022-12-24T08:12:25.264Z,25.00
2022-12-24T08:13:28.607Z,25.40
2022-12-24T08:14:31.941Z,24.42
2022-12-24T08:15:35.008Z,27.85
2022-12-24T08:16:38.243Z,25.67
2022-12-24T08:17:41.466Z,25.58
2022-12-24T08:18:45.161Z,25.48
2022-12-24T08:19:48.104Z,26.03
2022-12-24T08:20:51.553Z,22.63
2022-12-24T08:21:56.893Z,21.87
2022-12-24T08:23:03.898Z,29.52
2022-12-24T08:24:07.198Z,24.30
2022-12-24T08:25:10.522Z,27.15
2022-12-24T08:26:14.050Z,24.55
2022-12-24T08:27:16.908Z,25.35
2022-12-24T08:28:21.321Z,24.85
2022-12-24T08:29:25.614Z,25.77
2022-12-24T08:30:28.634Z,25.73
2022-12-24T08:31:36.634Z,27.97
2022-12-24T08:32:40.355Z,31.00
2022-12-24T08:33:43.904Z,29.95
2022-12-24T08:34:47.955Z,31.80
2022-12-24T08:35:52.972Z,31.10
2022-12-24T08:36:56.606Z,27.95
2022-12-24T08:37:59.689Z,28.77
2022-12-24T08:39:03.842Z,35.45
2022-12-24T08:40:07.181Z,30.73
2022-12-24T08:41:10.032Z,28.50
2022-12-24T08:42:13.066Z,23.50
2022-12-24T08:43:17.321Z,26.48
2022-12-24T08:44:20.599Z,31.50
2022-12-24T08:45:23.513Z,27.87
2022-12-24T08:46:26.807Z,31.40
2022-12-24T08:47:29.587Z,34.45
2022-12-24T08:48:36.767Z,35.33
2022-12-24T08:49:40.193Z,35.42
2022-12-24T08:50:43.146Z,39.08
2022-12-24T08:51:45.987Z,27.80
2022-12-24T08:52:48.841Z,46.83
2022-12-24T08:53:52.216Z,47.28
2022-12-24T08:54:55.416Z,42.75
2022-12-24T08:56:03.197Z,36.40
2022-12-24T08:57:06.103Z,31.33
2022-12-24T08:58:09.095Z,32.85
2022-12-24T08:59:12.792Z,34.08
2022-12-24T09:00:16.394Z,29.90
2022-12-24T09:01:20.511Z,30.88
2022-12-24T09:02:23.680Z,32.80
2022-12-24T09:03:28.064Z,26.30
2022-12-24T09:04:31.209Z,24.83
2022-12-24T09:05:34.253Z,27.42
2022-12-24T09:06:37.348Z,27.58
2022-12-24T09:07:40.981Z,22.80
2022-12-24T09:08:44.195Z,24.20
2022-12-24T09:09:47.304Z,23.52
2022-12-24T09:10:50.447Z,21.95
2022-12-24T09:11:53.370Z,21.80
2022-12-24T09:12:56.705Z,23.53
2022-12-24T09:13:59.375Z,22.43
2022-12-24T09:15:04.025Z,23.87
2022-12-24T09:16:08.425Z,24.60
2022-12-24T09:17:11.389Z,26.48
2022-12-24T09:18:14.179Z,22.00
2022-12-24T09:19:17.026Z,22.70
2022-12-24T09:20:19.869Z,23.75
2022-12-24T09:21:23.289Z,24.63
2022-12-24T09:22:26.208Z,25.80
2022-12-24T09:23:29.946Z,22.30
2022-12-24T09:24:33.122Z,24.07
2022-12-24T09:25:35.913Z,24.25
2022-12-24T09:26:41.363Z,25.25
2022-12-24T09:27:44.065Z,24.60
2022-12-24T09:28:48.615Z,23.40
2022-12-24T09:29:51.580Z,25.98
2022-12-24T09:31:02.844Z,24.35
2022-12-24T09:32:06.381Z,23.60
2022-12-24T09:33:09.234Z,24.23
2022-12-24T09:34:31.878Z,24.30
2022-12-24T09:35:51.365Z,23.60
2022-12-24T09:36:54.474Z,23.92
2022-12-24T09:38:03.874Z,23.77
2022-12-24T09:39:06.626Z,23.15
2022-12-24T09:40:29.324Z,23.42
2022-12-24T09:42:17.337Z,25.00
2022-12-24T09:43:31.491Z,25.05
2022-12-24T09:44:52.829Z,24.20
2022-12-24T09:46:09.697Z,25.75
2022-12-24T09:47:29.620Z,25.63
2022-12-24T09:48:37.354Z,25.43
2022-12-24T09:49:47.707Z,24.52
2022-12-24T09:50:57.220Z,26.77
2022-12-24T09:52:06.710Z,28.33
2022-12-24T09:53:55.043Z,27.75
2022-12-24T09:55:28.667Z,24.95
2022-12-24T09:56:36.254Z,24.77
2022-12-24T09:57:42.204Z,21.80
2022-12-24T09:58:54.215Z,23.50
2022-12-24T09:59:57.505Z,25.50
2022-12-24T10:01:02.430Z,25.30
2022-12-24T10:02:12.163Z,24.75
2022-12-24T10:03:16.819Z,23.98
2022-12-24T10:04:28.969Z,23.73
2022-12-24T10:06:02.106Z,24.00
2022-12-24T10:07:27.083Z,24.83
2022-12-24T10:09:03.522Z,23.92
2022-12-24T10:10:19.069Z,24.50
2022-12-24T10:11:36.334Z,24.95
2022-12-24T10:13:12.799Z,23.83
2022-12-24T10:14:25.904Z,23.40
2022-12-24T10:31:07.137Z,20.00
2022-12-24T10:32:09.928Z,22.52
2022-12-24T10:33:38.648Z,22.87
2022-12-24T10:34:59.453Z,29.80
2022-12-24T10:36:09.867Z,24.23
2022-12-24T10:37:20.322Z,25.10
2022-12-24T10:38:24.408Z,21.95
2022-12-24T10:39:27.478Z,21.55
2022-12-24T10:40:48.323Z,20.37
2022-12-24T10:41:59.913Z,21.47
2022-12-24T10:43:07.805Z,39.22
2022-12-24T10:44:17.317Z,29.98
2022-12-24T10:45:23.101Z,26.67
2022-12-24T10:46:52.563Z,22.52
2022-12-24T10:48:03.843Z,22.98
2022-12-24T10:49:16.336Z,24.95
2022-12-24T10:50:35.077Z,22.50
2022-12-24T10:51:45.713Z,22.23
2022-12-24T10:52:51.342Z,22.00
2022-12-24T10:54:18.255Z,21.30
2022-12-24T10:55:24.707Z,28.98
2022-12-24T10:56:27.429Z,22.77
2022-12-24T10:57:30.380Z,22.67
2022-12-24T10:58:34.565Z,25.12
2022-12-24T10:59:43.848Z,25.83
2022-12-24T11:00:52.310Z,25.52
2022-12-24T11:01:59.260Z,31.37
2022-12-24T11:03:29.236Z,25.33
2022-12-24T11:04:41.664Z,25.07
2022-12-24T11:05:44.851Z,25.43
2022-12-24T11:07:03.575Z,25.02
2022-12-24T11:08:16.065Z,23.45
2022-12-24T11:09:28.248Z,24.90
2022-12-24T11:10:31.985Z,26.73
2022-12-24T11:11:35.690Z,27.67
2022-12-24T11:12:55.896Z,27.45
2022-12-24T11:14:18.348Z,27.87
2022-12-24T11:15:36.407Z,27.45
2022-12-24T11:16:39.221Z,33.30
2022-12-24T11:17:42.383Z,25.30
2022-12-24T11:18:51.650Z,26.73
2022-12-24T11:19:54.921Z,25.27
2022-12-24T11:21:00.941Z,26.35
2022-12-24T11:22:17.981Z,24.45
2022-12-24T11:23:22.321Z,25.80
2022-12-24T11:24:29.904Z,26.40
2022-12-24T11:25:39.230Z,31.50
2022-12-24T11:26:44.351Z,27.62
2022-12-24T11:27:51.544Z,29.53
2022-12-24T11:29:13.773Z,37.03
2022-12-24T11:30:23.948Z,33.42
2022-12-24T11:31:32.935Z,27.15
2022-12-24T11:32:35.771Z,26.35
2022-12-24T11:33:50.375Z,29.10
2022-12-24T11:34:53.364Z,28.20
2022-12-24T11:36:07.108Z,29.05
2022-12-24T11:37:17.824Z,27.73
2022-12-24T11:38:27.147Z,32.90
2022-12-24T11:39:38.498Z,28.70
2022-12-24T11:40:44.908Z,25.30
2022-12-24T11:41:51.049Z,27.15
2022-12-24T11:43:00.416Z,36.42
2022-12-24T11:44:08.170Z,55.72
2022-12-24T11:45:26.522Z,33.95
2022-12-24T11:46:52.375Z,31.70
2022-12-24T11:47:56.306Z,29.60
2022-12-24T11:49:17.400Z,28.80
2022-12-24T11:50:35.750Z,34.38
2022-12-24T11:52:00.730Z,29.87
2022-12-24T11:53:03.440Z,30.20
2022-12-24T11:54:24.194Z,27.20
2022-12-24T11:55:47.953Z,27.90
2022-12-24T11:56:55.101Z,45.42
2022-12-24T11:58:11.475Z,41.00
2022-12-24T11:59:35.364Z,34.63
2022-12-24T12:00:41.572Z,119.00
2022-12-24T12:01:54.198Z,31.12
2022-12-24T12:03:02.094Z,27.45
2022-12-24T12:04:15.765Z,32.40
2022-12-24T12:05:26.576Z,31.00
2022-12-24T12:06:37.890Z,30.40
2022-12-24T12:07:44.961Z,29.98
2022-12-24T12:08:56.103Z,37.25
2022-12-24T12:10:07.691Z,32.75
2022-12-24T12:11:14.538Z,48.00
2022-12-24T12:12:29.660Z,34.97
2022-12-24T12:13:34.410Z,26.90
2022-12-24T12:14:45.239Z,29.55
2022-12-24T12:16:19.638Z,47.23
2022-12-24T12:17:32.795Z,26.03
2022-12-24T12:18:40.151Z,35.38
2022-12-24T12:19:50.828Z,27.95
2022-12-24T12:21:01.149Z,28.65
2022-12-24T12:22:10.756Z,50.42
2022-12-24T12:23:28.981Z,32.08
2022-12-24T12:24:42.909Z,28.95
2022-12-24T12:25:51.409Z,58.90
2022-12-24T12:27:05.565Z,36.83
2022-12-24T12:28:17.108Z,65.40
2022-12-24T12:29:49.566Z,45.67
2022-12-24T12:31:28.066Z,36.00
2022-12-24T12:32:49.205Z,35.65
2022-12-24T12:34:05.877Z,32.22
2022-12-24T12:35:29.717Z,34.13
2022-12-24T12:36:54.476Z,50.67
2022-12-24T12:38:05.290Z,39.58
2022-12-24T12:39:10.849Z,39.63
2022-12-24T12:40:16.149Z,43.70
2022-12-24T12:41:27.912Z,48.30
2022-12-24T12:42:39.745Z,33.00
2022-12-24T12:44:10.210Z,30.83
2022-12-24T12:45:16.156Z,27.42
2022-12-24T12:46:26.248Z,36.40
2022-12-24T12:47:35.065Z,25.65
2022-12-24T12:49:02.436Z,28.70
2022-12-24T12:50:24.541Z,30.67
2022-12-24T12:51:45.919Z,25.70
2022-12-24T12:53:42.848Z,22.83
2022-12-24T12:55:24.387Z,23.20
2022-12-24T12:56:32.871Z,28.00
2022-12-24T12:57:39.441Z,29.25
2022-12-24T12:58:49.751Z,34.58
2022-12-24T13:00:06.624Z,25.92
2022-12-24T13:01:47.995Z,23.55
2022-12-24T13:03:12.454Z,23.65
2022-12-24T13:04:30.540Z,25.25
2022-12-24T13:05:40.864Z,25.15
2022-12-24T13:06:52.530Z,24.10
2022-12-24T13:08:14.265Z,25.27
2022-12-24T13:30:27.101Z,31.85
2022-12-24T13:31:30.352Z,31.83
2022-12-24T13:32:50.137Z,29.80
2022-12-24T13:33:57.254Z,27.45
2022-12-24T13:35:25.280Z,26.85
2022-12-24T13:37:08.692Z,26.23
2022-12-24T13:38:29.779Z,26.40
2022-12-24T13:40:15.597Z,26.25
2022-12-24T13:41:40.015Z,26.42
2022-12-24T13:42:58.862Z,23.70
2022-12-24T13:44:07.532Z,26.73
2022-12-24T13:45:29.170Z,37.15
2022-12-24T13:47:05.571Z,38.92
2022-12-24T13:48:10.930Z,40.25
2022-12-24T13:49:22.465Z,56.47
2022-12-24T13:50:50.244Z,50.23
2022-12-24T13:52:07.730Z,53.70
2022-12-24T13:53:38.400Z,31.95
2022-12-24T13:54:43.125Z,25.48
2022-12-24T13:56:22.122Z,26.65
2022-12-24T13:57:39.614Z,25.45
2022-12-24T13:59:11.000Z,38.75
2022-12-24T14:00:23.021Z,46.28
2022-12-24T14:01:39.388Z,24.58
2022-12-24T14:03:07.659Z,24.87
2022-12-24T14:04:33.864Z,33.67
2022-12-24T14:05:38.925Z,29.10
2022-12-24T14:06:42.706Z,23.87
2022-12-24T14:07:50.304Z,32.55
2022-12-24T14:08:58.176Z,30.85
2022-12-24T14:10:01.390Z,32.20
2022-12-24T14:11:11.312Z,29.25
2022-12-24T14:12:29.471Z,33.08
2022-12-24T14:13:38.137Z,28.45
2022-12-24T14:14:42.044Z,25.00
2022-12-24T14:15:50.506Z,26.47
2022-12-24T14:16:55.454Z,31.23
2022-12-24T14:17:58.766Z,27.42
2022-12-24T14:19:02.801Z,36.83
2022-12-24T14:20:09.138Z,55.58
2022-12-24T14:21:42.556Z,28.02
2022-12-24T14:22:47.163Z,52.60
2022-12-24T14:23:53.091Z,50.72
2022-12-24T14:25:02.382Z,27.33
2022-12-24T14:26:14.761Z,29.75
2022-12-24T14:27:19.807Z,73.60
2022-12-24T14:28:29.221Z,39.40
2022-12-24T14:29:36.078Z,98.85
2022-12-24T14:30:38.854Z,68.05
2022-12-24T14:31:52.616Z,45.40
2022-12-24T14:32:56.220Z,116.93
2022-12-24T14:34:12.841Z,60.78
2022-12-24T14:35:18.712Z,96.90
2022-12-24T14:36:24.407Z,41.85
2022-12-24T14:37:31.596Z,25.95
2022-12-24T14:38:40.297Z,24.97
2022-12-24T14:39:48.171Z,23.53
2022-12-24T14:41:00.203Z,24.30
2022-12-24T14:42:27.291Z,72.87
2022-12-24T14:43:36.283Z,86.18
2022-12-24T14:44:49.766Z,67.78
2022-12-24T14:46:11.224Z,37.28
2022-12-24T14:47:27.001Z,34.70
2022-12-24T14:48:36.778Z,65.87
2022-12-24T14:49:58.000Z,41.15
2022-12-24T14:51:22.095Z,55.93
2022-12-24T14:53:03.336Z,37.07
2022-12-24T14:54:31.482Z,55.38
2022-12-24T14:55:42.971Z,62.70
2022-12-24T14:56:46.240Z,33.08
2022-12-24T14:57:49.200Z,24.98
2022-12-24T14:58:52.583Z,38.63
2022-12-24T15:00:00.067Z,29.85
2022-12-24T15:01:17.869Z,37.60
2022-12-24T15:02:30.427Z,39.30
2022-12-24T15:03:36.538Z,34.90
2022-12-24T15:04:39.400Z,41.37
2022-12-24T15:05:43.572Z,34.17
2022-12-24T15:06:57.721Z,33.03
2022-12-24T15:08:15.846Z,49.85
2022-12-24T15:09:30.832Z,62.58
2022-12-24T15:10:34.961Z,42.20
2022-12-24T15:11:38.110Z,32.83
2022-12-24T15:12:41.220Z,25.83
2022-12-24T15:13:57.425Z,28.23
2022-12-24T15:15:00.372Z,41.47
2022-12-24T15:16:05.818Z,28.87
2022-12-24T15:17:12.439Z,28.15
2022-12-24T15:18:18.717Z,28.58
2022-12-24T15:19:53.182Z,34.35
2022-12-24T15:21:04.390Z,36.70
2022-12-24T15:22:28.168Z,33.22
2022-12-24T15:23:47.300Z,36.50
2022-12-24T15:24:51.056Z,37.95
2022-12-24T15:26:08.552Z,57.70
2022-12-24T15:27:22.912Z,51.67
2022-12-24T15:28:25.838Z,42.40
2022-12-24T15:29:36.482Z,40.15
2022-12-24T15:30:40.080Z,60.12
2022-12-24T15:31:43.731Z,49.08
2022-12-24T15:32:47.184Z,37.95
2022-12-24T15:33:55.722Z,28.90
2022-12-24T15:35:03.789Z,27.13
2022-12-24T15:36:09.971Z,29.37
2022-12-24T15:37:19.469Z,26.30
2022-12-24T15:38:43.824Z,55.30
2022-12-24T15:40:23.309Z,83.17
2022-12-24T15:41:32.236Z,58.13
2022-12-24T15:42:35.877Z,39.13
2022-12-24T15:43:40.797Z,38.70
2022-12-24T15:45:02.004Z,22.30
2022-12-24T15:46:07.986Z,21.85